createdAt,value
2022-09-12T00:00:31.836Z,6.20
2022-09-12T00:02:39.889Z,6.07
2022-09-12T00:04:44.746Z,6.63
2022-09-12T00:06:49.507Z,6.53
2022-09-12T00:08:57.282Z,6.28
2022-09-12T00:11:07.837Z,6.10
2022-09-12T00:13:14.191Z,6.18
2022-09-12T00:15:19.002Z,5.28
2022-09-12T00:17:23.722Z,5.85
2022-09-12T00:19:33.556Z,5.80
2022-09-12T00:21:40.581Z,5.80
2022-09-12T00:23:45.451Z,5.88
2022-09-12T00:25:51.148Z,5.25
2022-09-12T00:27:56.046Z,5.32
2022-09-12T00:30:00.781Z,4.90
2022-09-12T00:32:05.706Z,5.53
2022-09-12T00:34:10.453Z,5.43
2022-09-12T00:36:19.723Z,5.03
2022-09-12T00:38:24.702Z,4.97
2022-09-12T00:40:30.161Z,4.97
2022-09-12T00:42:34.926Z,4.78
2022-09-12T00:44:52.762Z,7.30
2022-09-12T00:47:01.178Z,5.88
2022-09-12T00:49:10.567Z,5.25
2022-09-12T00:51:19.157Z,7.43
2022-09-12T00:53:24.218Z,4.65
2022-09-12T00:55:33.912Z,5.90
2022-09-12T00:57:43.252Z,5.07
2022-09-12T00:59:52.057Z,5.28
2022-09-12T01:01:59.119Z,5.85
2022-09-12T01:04:04.749Z,4.15
2022-09-12T01:06:14.690Z,4.57
2022-09-12T01:08:23.426Z,6.78
2022-09-12T01:10:28.236Z,4.47
2022-09-12T01:12:34.436Z,5.63
2022-09-12T01:14:40.143Z,4.57
2022-09-12T01:16:45.438Z,4.65
2022-09-12T01:19:03.709Z,4.53
2022-09-12T01:21:21.604Z,5.47
2022-09-12T01:24:19.478Z,5.63
2022-09-12T01:27:08.566Z,6.00
2022-09-12T01:29:34.913Z,4.97
2022-09-12T01:31:48.357Z,5.03
2022-09-12T01:34:03.972Z,5.63
2022-09-12T01:36:38.274Z,6.05
2022-09-12T01:38:50.314Z,6.22
2022-09-12T01:41:02.547Z,4.40
2022-09-12T01:43:16.119Z,5.03
2022-09-12T01:45:28.229Z,8.00
2022-09-12T01:47:42.753Z,5.57
2022-09-12T01:49:56.083Z,6.00
2022-09-12T01:52:07.168Z,5.13
2022-09-12T01:54:16.274Z,5.03
2022-09-12T01:56:26.006Z,4.50
2022-09-12T01:58:36.499Z,6.63
2022-09-12T02:00:49.059Z,4.82
2022-09-12T02:03:03.096Z,8.15
2022-09-12T02:05:12.969Z,5.50
2022-09-12T02:07:22.835Z,4.53
2022-09-12T02:09:32.892Z,4.95
2022-09-12T02:11:42.609Z,6.20
2022-09-12T02:13:53.429Z,4.50
2022-09-12T02:16:06.070Z,4.05
2022-09-12T02:18:18.143Z,5.53
2022-09-12T02:20:46.823Z,3.70
2022-09-12T02:22:55.812Z,3.70
2022-09-12T02:25:03.276Z,4.35
2022-09-12T02:27:12.904Z,3.88
2022-09-12T02:29:18.065Z,4.35
2022-09-12T02:33:41.615Z,3.95
2022-09-12T02:38:00.740Z,6.47
2022-09-12T02:40:07.183Z,4.53
2022-09-12T02:42:12.093Z,5.32
2022-09-12T02:44:16.942Z,4.47
2022-09-12T02:46:26.557Z,4.00
2022-09-12T02:48:41.476Z,4.28
2022-09-12T02:50:46.883Z,3.75
2022-09-12T02:52:53.813Z,3.63
2022-09-12T02:55:00.326Z,3.90
2022-09-12T02:57:05.124Z,3.33
2022-09-12T02:59:12.584Z,3.78
2022-09-12T03:01:31.873Z,3.85
2022-09-12T03:03:59.162Z,4.13
2022-09-12T03:06:11.217Z,3.92
2022-09-12T03:08:34.311Z,4.00
2022-09-12T03:10:48.902Z,3.75
2022-09-12T03:13:06.689Z,4.38
2022-09-12T03:15:21.752Z,3.60
2022-09-12T03:17:38.805Z,3.85
2022-09-12T03:19:57.733Z,3.72
2022-09-12T03:22:12.251Z,3.38
2022-09-12T03:24:21.523Z,2.55
2022-09-12T03:26:31.198Z,3.28
2022-09-12T03:28:40.492Z,3.90
2022-09-12T03:30:47.421Z,4.00
2022-09-12T03:32:54.693Z,6.22
2022-09-12T03:35:01.985Z,4.30
2022-09-12T03:37:06.986Z,3.67
2022-09-12T03:39:11.768Z,4.07
2022-09-12T03:41:16.633Z,4.03
2022-09-12T03:43:21.829Z,5.55
2022-09-12T03:47:31.302Z,4.18
2022-09-12T03:49:36.098Z,4.28
2022-09-12T03:51:44.062Z,4.03
2022-09-12T03:53:48.793Z,3.90
2022-09-12T03:55:53.573Z,3.50
2022-09-12T03:57:58.799Z,4.13
2022-09-12T04:00:04.405Z,4.00
2022-09-12T04:02:17.262Z,3.40
2022-09-12T04:04:22.112Z,2.97
2022-09-12T04:06:26.824Z,3.40
2022-09-12T04:08:34.164Z,3.67
2022-09-12T04:10:38.902Z,3.55
2022-09-12T04:12:43.691Z,3.63
2022-09-12T04:14:48.919Z,3.72
2022-09-12T04:18:58.389Z,4.10
2022-09-12T04:21:07.062Z,4.25
2022-09-12T04:23:11.808Z,4.03
2022-09-12T04:25:19.254Z,4.55
2022-09-12T04:27:24.033Z,4.43
2022-09-12T04:29:29.590Z,4.30
2022-09-12T04:31:34.351Z,5.15
2022-09-12T04:33:39.339Z,5.15
2022-09-12T04:35:45.435Z,6.93
2022-09-12T04:37:50.179Z,8.10
2022-09-12T04:39:57.915Z,5.93
2022-09-12T04:42:05.578Z,6.13
2022-09-12T04:44:13.945Z,5.72
2022-09-12T04:46:20.538Z,6.68
2022-09-12T04:48:25.268Z,5.97
2022-09-12T04:50:30.051Z,6.32
2022-09-12T04:52:34.788Z,6.38
2022-09-12T04:54:40.362Z,6.68
2022-09-12T04:56:48.291Z,7.75
2022-09-12T04:58:55.777Z,8.02
2022-09-12T05:01:07.026Z,8.50
2022-09-12T05:03:12.174Z,9.98
2022-09-12T05:07:22.355Z,8.32
2022-09-12T05:09:27.360Z,7.95
2022-09-12T05:12:02.076Z,7.40
2022-09-12T05:14:01.870Z,7.97
2022-09-12T05:16:08.737Z,7.18
2022-09-12T05:18:13.654Z,6.63
2022-09-12T05:20:18.666Z,6.85
2022-09-12T05:22:23.416Z,9.80
2022-09-12T05:24:29.347Z,7.30
2022-09-12T05:26:34.111Z,6.97
2022-09-12T05:28:41.058Z,18.33
2022-09-12T05:30:51.617Z,8.20
2022-09-12T05:32:56.416Z,6.97
2022-09-12T05:35:01.216Z,6.32
2022-09-12T05:37:06.340Z,6.55
2022-09-12T05:41:21.878Z,7.35
2022-09-12T05:43:29.411Z,7.45
2022-09-12T05:45:35.042Z,8.48
2022-09-12T05:47:43.960Z,9.13
2022-09-12T05:49:51.342Z,10.73
2022-09-12T05:51:56.424Z,9.40
2022-09-12T05:54:03.798Z,17.85
2022-09-12T05:56:10.147Z,11.98
2022-09-12T05:58:15.032Z,13.05
2022-09-12T06:00:21.387Z,13.25
2022-09-12T06:02:26.728Z,11.57
2022-09-12T06:04:34.289Z,11.50
2022-09-12T06:06:42.158Z,14.85
2022-09-12T06:08:48.616Z,12.75
2022-09-12T06:10:53.367Z,16.85
2022-09-12T06:12:58.160Z,17.55
2022-09-12T06:15:02.923Z,24.80
2022-09-12T06:17:08.063Z,20.30
2022-09-12T06:19:17.778Z,21.13
2022-09-12T06:21:26.660Z,21.00
2022-09-12T06:23:31.404Z,20.80
2022-09-12T06:25:36.223Z,23.27
2022-09-12T06:27:40.995Z,27.95
2022-09-12T06:29:46.236Z,24.75
2022-09-12T06:33:57.427Z,25.48
2022-09-12T06:36:11.555Z,26.92
2022-09-12T06:38:19.844Z,26.65
2022-09-12T06:40:24.660Z,22.70
2022-09-12T06:42:29.477Z,28.65
2022-09-12T06:44:35.115Z,31.60
2022-09-12T06:46:39.852Z,20.92
2022-09-12T06:48:45.297Z,20.88
2022-09-12T06:50:58.434Z,19.48
2022-09-12T06:53:03.278Z,24.25
2022-09-12T06:55:11.493Z,20.63
2022-09-12T06:57:18.151Z,15.05
2022-09-12T06:59:22.990Z,24.70
2022-09-12T07:01:29.299Z,12.77
2022-09-12T07:03:35.425Z,14.23
2022-09-12T07:05:40.358Z,15.13
2022-09-12T07:07:45.137Z,14.30
2022-09-12T07:09:50.456Z,15.90
2022-09-12T07:11:57.830Z,16.95
2022-09-12T07:14:04.084Z,15.57
2022-09-12T07:16:10.195Z,13.48
2022-09-12T07:18:14.980Z,15.20
2022-09-12T07:20:19.838Z,13.00
2022-09-12T07:22:24.624Z,12.60
2022-09-12T07:24:29.395Z,14.73
2022-09-12T07:26:34.201Z,12.80
2022-09-12T07:28:42.407Z,13.35
2022-09-12T07:30:47.230Z,15.20
2022-09-12T07:32:55.503Z,12.20
2022-09-12T07:35:00.236Z,11.88
2022-09-12T07:37:05.087Z,12.55
2022-09-12T07:39:09.853Z,14.50
2022-09-12T07:41:15.077Z,19.70
2022-09-12T07:45:27.054Z,15.05
2022-09-12T07:47:31.793Z,18.38
2022-09-12T07:49:36.693Z,18.23
2022-09-12T07:51:41.465Z,14.05
2022-09-12T07:53:46.487Z,17.10
2022-09-12T07:55:56.350Z,15.95
2022-09-12T07:58:01.399Z,16.33
2022-09-12T08:00:08.971Z,15.05
2022-09-12T08:02:19.727Z,13.15
2022-09-12T08:04:24.907Z,13.48
2022-09-12T08:06:32.325Z,14.18
2022-09-12T08:08:37.557Z,15.70
2022-09-12T08:10:42.445Z,15.82
2022-09-12T08:12:48.962Z,15.95
2022-09-12T08:14:53.759Z,13.60
2022-09-12T08:16:58.557Z,14.73
2022-09-12T08:19:07.193Z,14.40
2022-09-12T08:21:17.761Z,13.63
2022-09-12T08:23:23.605Z,16.77
2022-09-12T08:25:28.779Z,16.42
2022-09-12T08:29:38.041Z,18.05
2022-09-12T08:31:42.874Z,14.45
2022-09-12T08:33:50.947Z,12.25
2022-09-12T08:36:05.961Z,15.60
2022-09-12T08:38:10.710Z,14.50
2022-09-12T08:40:19.914Z,14.77
2022-09-12T08:42:35.015Z,13.00
2022-09-12T08:44:56.311Z,12.23
2022-09-12T08:47:17.658Z,14.88
2022-09-12T08:49:31.223Z,14.55
2022-09-12T08:51:39.870Z,14.65
2022-09-12T08:53:51.004Z,15.10
2022-09-12T08:55:59.300Z,14.15
2022-09-12T08:58:08.194Z,13.18
2022-09-12T09:00:17.501Z,18.85
2022-09-12T09:02:48.693Z,15.65
2022-09-12T09:04:55.843Z,21.00
2022-09-12T09:07:26.008Z,16.02
2022-09-12T09:09:45.405Z,17.70
2022-09-12T09:12:00.604Z,16.10
2022-09-12T09:14:31.218Z,15.43
2022-09-12T09:16:39.299Z,14.35
2022-09-12T09:18:47.567Z,12.48
2022-09-12T09:20:56.195Z,14.38
2022-09-12T09:23:11.230Z,16.52
2022-09-12T09:25:23.025Z,13.80
2022-09-12T09:27:40.834Z,15.95
2022-09-12T09:29:50.548Z,17.10
2022-09-12T09:31:57.916Z,12.05
2022-09-12T09:34:03.357Z,12.68
2022-09-12T09:36:22.535Z,16.35
2022-09-12T09:38:43.648Z,18.02
2022-09-12T09:40:57.754Z,16.17
2022-09-12T09:43:09.106Z,18.73
2022-09-12T09:45:19.667Z,14.98
2022-09-12T09:47:24.642Z,14.02
2022-09-12T09:49:31.762Z,15.00
2022-09-12T09:51:38.652Z,14.30
2022-09-12T09:53:51.103Z,14.65
2022-09-12T09:55:58.816Z,14.38
2022-09-12T09:58:04.156Z,13.90
2022-09-12T10:00:25.054Z,13.25
2022-09-12T10:02:29.880Z,10.38
2022-09-12T10:04:41.205Z,10.45
2022-09-12T10:06:49.029Z,11.95
2022-09-12T10:09:20.191Z,8.10
2022-09-12T10:11:27.104Z,10.13
2022-09-12T10:13:42.503Z,11.18
2022-09-12T10:16:00.409Z,12.10
2022-09-12T10:18:05.568Z,8.75
2022-09-12T10:22:36.577Z,7.70
2022-09-12T10:24:45.671Z,6.30
2022-09-12T10:26:57.112Z,5.90
2022-09-12T10:29:09.799Z,6.10
2022-09-12T10:31:18.523Z,5.53
2022-09-12T10:33:23.904Z,6.35
2022-09-12T10:35:33.905Z,6.50
2022-09-12T10:37:41.191Z,8.15
2022-09-12T10:39:55.496Z,8.23
2022-09-12T10:42:00.376Z,12.77
2022-09-12T10:44:10.914Z,7.93
2022-09-12T10:46:31.302Z,8.25
2022-09-12T10:48:36.346Z,7.55
2022-09-12T10:52:51.224Z,6.25
2022-09-12T10:54:58.771Z,5.68
2022-09-12T10:57:28.349Z,6.72
2022-09-12T10:59:43.878Z,5.53
2022-09-12T11:01:52.135Z,5.90
2022-09-12T11:04:31.853Z,6.15
2022-09-12T11:06:45.944Z,8.15
2022-09-12T11:09:00.509Z,7.57
2022-09-12T11:11:15.929Z,6.30
2022-09-12T11:13:32.862Z,5.50
2022-09-12T11:16:02.648Z,6.63
2022-09-12T11:18:20.250Z,5.22
2022-09-12T11:20:40.157Z,8.13
2022-09-12T11:23:06.530Z,7.07
2022-09-12T11:25:22.454Z,6.07
2022-09-12T11:27:48.958Z,4.60
2022-09-12T11:29:57.420Z,8.50
2022-09-12T11:32:28.015Z,6.95
2022-09-12T11:34:43.291Z,3.97
2022-09-12T11:37:10.960Z,10.77
2022-09-12T11:39:18.860Z,23.48
2022-09-12T11:41:29.567Z,6.50
2022-09-12T11:43:42.631Z,4.30
2022-09-12T11:45:48.942Z,4.97
2022-09-12T11:47:58.371Z,5.13
2022-09-12T11:50:07.216Z,4.70
2022-09-12T11:52:17.634Z,6.07
2022-09-12T11:54:27.438Z,6.00
2022-09-12T11:56:32.285Z,5.10
2022-09-12T11:58:41.966Z,5.35
2022-09-12T12:00:51.026Z,4.47
2022-09-12T12:03:05.963Z,7.78
2022-09-12T12:05:23.439Z,8.07
2022-09-12T12:07:28.332Z,4.88
2022-09-12T12:09:33.605Z,5.30
2022-09-12T12:11:42.326Z,4.78
2022-09-12T12:13:55.747Z,4.55
2022-09-12T12:16:04.292Z,5.47
2022-09-12T12:18:11.266Z,6.18
2022-09-12T12:20:20.496Z,5.43
2022-09-12T12:22:27.333Z,5.47
2022-09-12T12:24:32.160Z,4.78
2022-09-12T12:26:56.739Z,4.78
2022-09-12T12:29:05.130Z,4.80
2022-09-12T12:31:10.653Z,4.95
2022-09-12T12:33:45.399Z,5.97
2022-09-12T12:36:07.288Z,5.15
2022-09-12T12:38:31.065Z,4.00
2022-09-12T12:40:35.959Z,4.35
2022-09-12T12:43:31.549Z,5.18
2022-09-12T12:46:12.135Z,5.72
2022-09-12T12:48:22.317Z,5.90
2022-09-12T12:50:29.400Z,6.78
2022-09-12T12:52:36.254Z,3.92
2022-09-12T12:54:59.499Z,6.00
2022-09-12T12:57:19.820Z,6.63
2022-09-12T12:59:26.483Z,6.55
2022-09-12T13:01:40.142Z,5.70
2022-09-12T13:03:50.431Z,5.25
2022-09-12T13:06:03.341Z,5.40
2022-09-12T13:08:12.911Z,6.57
2022-09-12T13:10:27.086Z,4.47
2022-09-12T13:12:35.306Z,3.83
2022-09-12T13:14:52.917Z,3.85
2022-09-12T13:17:01.302Z,3.85
2022-09-12T13:19:18.580Z,3.75
2022-09-12T13:21:24.112Z,3.97
2022-09-12T13:23:31.227Z,4.45
2022-09-12T13:25:38.158Z,3.30
2022-09-12T13:27:42.910Z,3.67
2022-09-12T13:29:47.821Z,3.35
2022-09-12T13:34:04.328Z,5.10
2022-09-12T13:36:25.048Z,3.58
2022-09-12T13:38:40.673Z,4.10
2022-09-12T13:40:57.482Z,4.20
2022-09-12T13:43:16.991Z,5.07
2022-09-12T13:45:27.058Z,3.85
2022-09-12T13:47:35.657Z,2.67
2022-09-12T13:49:43.567Z,4.15
2022-09-12T13:52:01.170Z,4.05
2022-09-12T13:54:08.196Z,2.88
2022-09-12T13:56:19.473Z,3.28
2022-09-12T13:58:27.171Z,3.10
2022-09-12T14:00:35.053Z,3.13
2022-09-12T14:02:42.668Z,2.25
2022-09-12T14:05:02.613Z,5.40
2022-09-12T14:07:16.769Z,3.13
2022-09-12T14:09:27.027Z,3.08
2022-09-12T14:11:34.047Z,4.35
2022-09-12T14:13:39.032Z,3.72
2022-09-12T14:17:57.984Z,3.83
2022-09-12T14:20:04.446Z,4.00
2022-09-12T14:22:18.163Z,4.80
2022-09-12T14:24:24.439Z,2.78
2022-09-12T14:26:32.489Z,3.05
2022-09-12T14:28:37.902Z,3.30
2022-09-12T14:30:43.268Z,3.33
2022-09-12T14:33:05.813Z,4.10
2022-09-12T14:35:22.052Z,4.57
2022-09-12T14:37:29.587Z,3.03
2022-09-12T14:39:36.366Z,2.90
2022-09-12T14:41:44.193Z,5.50
2022-09-12T14:43:53.440Z,3.63
2022-09-12T14:46:02.297Z,4.28
2022-09-12T14:48:07.231Z,3.75
2022-09-12T14:50:20.247Z,2.83
2022-09-12T14:52:32.511Z,2.53
2022-09-12T14:54:44.768Z,3.35
2022-09-12T14:56:57.905Z,2.78
2022-09-12T14:59:23.841Z,2.80
2022-09-12T15:03:36.752Z,2.42
2022-09-12T15:05:52.242Z,3.15
2022-09-12T15:10:09.008Z,4.20
2022-09-12T15:12:13.917Z,4.20
2022-09-12T15:16:23.620Z,4.35
2022-09-12T15:20:34.458Z,3.78
2022-09-12T15:22:40.420Z,3.00
2022-09-12T15:24:47.978Z,3.38
2022-09-12T15:26:53.521Z,3.45
2022-09-12T15:28:58.311Z,3.33
2022-09-12T15:31:09.448Z,2.70
2022-09-12T15:33:14.982Z,3.65
2022-09-12T15:35:21.343Z,9.35
2022-09-12T15:37:27.745Z,3.20
2022-09-12T15:39:43.242Z,4.80
2022-09-12T15:41:50.839Z,2.92
2022-09-12T15:43:56.447Z,4.38
2022-09-12T15:46:04.556Z,3.10
2022-09-12T15:48:10.305Z,3.42
2022-09-12T15:50:15.546Z,3.97
2022-09-12T15:52:20.377Z,5.60
2022-09-12T15:54:25.161Z,5.18
2022-09-12T15:56:29.902Z,2.83
2022-09-12T15:58:49.760Z,4.15
2022-09-12T16:01:02.767Z,2.95
2022-09-12T16:03:07.702Z,3.30
2022-09-12T16:05:17.280Z,5.38
2022-09-12T16:07:22.184Z,2.95
2022-09-12T16:09:27.442Z,5.32
2022-09-12T16:11:33.141Z,6.72
2022-09-12T16:13:40.631Z,5.35
2022-09-12T16:15:45.469Z,4.50
2022-09-12T16:17:50.819Z,7.20
2022-09-12T16:19:55.598Z,4.95
2022-09-12T16:22:00.352Z,4.20
2022-09-12T16:24:05.637Z,5.43
2022-09-12T16:26:10.469Z,4.82
2022-09-12T16:28:15.629Z,4.05
2022-09-12T16:32:27.746Z,4.82
2022-09-12T16:34:32.518Z,3.90
2022-09-12T16:36:37.487Z,5.88
2022-09-12T16:40:52.990Z,4.60
2022-09-12T16:42:57.762Z,8.98
2022-09-12T16:45:02.665Z,6.07
2022-09-12T16:47:10.031Z,4.57
2022-09-12T16:49:16.202Z,5.03
2022-09-12T16:51:23.027Z,4.22
2022-09-12T16:53:27.924Z,4.45
2022-09-12T16:55:32.727Z,4.07
2022-09-12T16:57:37.537Z,4.03
2022-09-12T16:59:43.884Z,5.10
2022-09-12T17:01:48.787Z,5.30
2022-09-12T17:06:04.006Z,6.15
2022-09-12T17:08:09.624Z,6.65
2022-09-12T17:10:14.435Z,5.28
2022-09-12T17:12:19.221Z,4.65
2022-09-12T17:14:24.045Z,8.77
2022-09-12T17:16:29.353Z,5.28
2022-09-12T17:18:34.140Z,4.78
2022-09-12T17:20:41.504Z,5.05
2022-09-12T17:22:46.285Z,5.72
2022-09-12T17:24:54.001Z,6.63
2022-09-12T17:26:59.476Z,5.25
2022-09-12T17:29:04.323Z,5.57
2022-09-12T17:31:12.050Z,6.82
2022-09-12T17:33:16.829Z,4.88
2022-09-12T17:35:21.568Z,6.05
2022-09-12T17:37:28.903Z,5.75
2022-09-12T17:39:33.712Z,5.07
2022-09-12T17:41:38.603Z,4.78
2022-09-12T17:45:48.131Z,4.32
2022-09-12T17:47:52.952Z,4.00
2022-09-12T17:50:09.379Z,4.60
2022-09-12T17:52:22.641Z,5.20
2022-09-12T17:54:30.097Z,6.43
2022-09-12T17:56:37.152Z,9.18
2022-09-12T17:58:42.254Z,5.68
2022-09-12T18:03:05.480Z,7.72
2022-09-12T18:05:10.600Z,5.68
2022-09-12T18:09:23.446Z,5.22
2022-09-12T18:11:31.476Z,6.78
2022-09-12T18:13:36.463Z,4.03
2022-09-12T18:15:41.414Z,5.07
2022-09-12T18:17:46.299Z,4.78
2022-09-12T18:19:54.069Z,6.82
2022-09-12T18:21:59.347Z,5.47
2022-09-12T18:24:04.708Z,5.05
2022-09-12T18:26:12.677Z,5.28
2022-09-12T18:28:20.120Z,6.32
2022-09-12T18:30:24.932Z,5.85
2022-09-12T18:32:29.662Z,5.13
2022-09-12T18:34:34.704Z,5.93
2022-09-12T18:36:39.471Z,5.32
2022-09-12T18:38:45.078Z,5.82
2022-09-12T18:40:50.036Z,4.50
2022-09-12T18:42:54.865Z,5.25
2022-09-12T18:45:04.458Z,5.88
2022-09-12T18:47:09.488Z,6.93
2022-09-12T18:49:14.291Z,5.15
2022-09-12T18:51:22.816Z,5.22
2022-09-12T18:53:27.593Z,5.15
2022-09-12T18:55:33.459Z,5.40
2022-09-12T18:57:40.594Z,7.57
2022-09-12T18:59:46.627Z,8.82
2022-09-12T19:01:57.205Z,5.93
2022-09-12T19:04:04.797Z,6.18
2022-09-12T19:06:11.857Z,6.15
2022-09-12T19:08:16.736Z,5.88
2022-09-12T19:10:21.698Z,5.35
2022-09-12T19:12:26.602Z,8.85
2022-09-12T19:14:31.430Z,6.38
2022-09-12T19:16:36.400Z,7.43
2022-09-12T19:18:44.193Z,8.25
2022-09-12T19:20:54.139Z,6.18
2022-09-12T19:22:58.884Z,5.75
2022-09-12T19:25:03.740Z,6.07
2022-09-12T19:27:08.669Z,5.70
2022-09-12T19:29:14.824Z,5.60
2022-09-12T19:31:22.050Z,5.35
2022-09-12T19:33:27.639Z,5.13
2022-09-12T19:35:37.221Z,4.72
2022-09-12T19:37:42.094Z,5.30
2022-09-12T19:39:47.135Z,5.72
2022-09-12T19:43:58.076Z,5.68
2022-09-12T19:46:04.838Z,5.38
2022-09-12T19:48:09.833Z,5.57
2022-09-12T19:50:14.667Z,8.20
2022-09-12T19:52:22.364Z,5.97
2022-09-12T19:54:27.238Z,6.50
2022-09-12T19:56:32.187Z,6.72
2022-09-12T19:58:40.532Z,5.20
2022-09-12T20:00:45.778Z,5.13
2022-09-12T20:02:53.330Z,5.65
2022-09-12T20:04:58.104Z,7.68
2022-09-12T20:07:02.974Z,6.10
2022-09-12T20:09:10.426Z,6.25
2022-09-12T20:11:17.451Z,6.50
2022-09-12T20:13:22.227Z,7.75
2022-09-12T20:15:27.066Z,7.13
2022-09-12T20:17:31.966Z,8.00
2022-09-12T20:19:37.294Z,10.18
2022-09-12T20:21:42.714Z,6.40
2022-09-12T20:23:49.406Z,6.25
2022-09-12T20:25:56.752Z,6.53
2022-09-12T20:28:01.545Z,6.72
2022-09-12T20:30:07.324Z,6.60
2022-09-12T20:32:12.366Z,7.22
2022-09-12T20:36:24.983Z,6.10
2022-09-12T20:38:29.727Z,6.18
2022-09-12T20:40:34.522Z,7.60
2022-09-12T20:42:41.891Z,5.82
2022-09-12T20:44:46.657Z,5.97
2022-09-12T20:46:51.567Z,5.75
2022-09-12T20:48:56.741Z,6.63
2022-09-12T20:53:07.500Z,5.95
2022-09-12T20:55:13.045Z,6.28
2022-09-12T20:57:17.856Z,6.32
2022-09-12T20:59:25.232Z,6.70
2022-09-12T21:01:31.649Z,6.28
2022-09-12T21:03:39.646Z,6.35
2022-09-12T21:05:44.943Z,5.53
2022-09-12T21:09:54.388Z,6.43
2022-09-12T21:11:59.157Z,6.20
2022-09-12T21:14:03.912Z,5.82
2022-09-12T21:16:13.881Z,8.45
2022-09-12T21:18:18.651Z,5.80
2022-09-12T21:20:23.539Z,6.57
2022-09-12T21:22:28.431Z,5.60
2022-09-12T21:24:33.200Z,5.95
2022-09-12T21:26:40.688Z,5.57
2022-09-12T21:28:45.696Z,5.85
2022-09-12T21:30:51.376Z,9.80
2022-09-12T21:32:58.763Z,5.88
2022-09-12T21:35:04.107Z,6.45
2022-09-12T21:37:08.958Z,6.13
2022-09-12T21:39:14.593Z,6.85
2022-09-12T21:41:20.326Z,5.45
2022-09-12T21:43:25.103Z,5.63
2022-09-12T21:45:30.659Z,5.43
2022-09-12T21:47:35.467Z,6.28
2022-09-12T21:49:42.787Z,6.38
2022-09-12T21:51:47.579Z,5.60
2022-09-12T21:53:52.310Z,7.30
2022-09-12T21:55:57.232Z,5.75
2022-09-12T21:58:01.941Z,6.13
2022-09-12T22:00:07.950Z,7.07
2022-09-12T22:02:13.928Z,6.35
2022-09-12T22:04:18.935Z,5.95
2022-09-12T22:06:26.229Z,7.07
2022-09-12T22:08:32.393Z,6.32
2022-09-12T22:10:38.565Z,6.13
2022-09-12T22:12:46.131Z,6.55
2022-09-12T22:14:55.424Z,6.95
2022-09-12T22:17:00.185Z,7.32
2022-09-12T22:19:04.950Z,7.25
2022-09-12T22:21:12.469Z,7.05
2022-09-12T22:23:32.282Z,7.38
2022-09-12T22:25:37.194Z,9.95
2022-09-12T22:27:41.971Z,7.60
2022-09-12T22:29:49.225Z,6.82
2022-09-12T22:31:54.007Z,6.65
2022-09-12T22:33:59.478Z,6.22
2022-09-12T22:36:04.477Z,7.05
2022-09-12T22:38:09.321Z,7.20
2022-09-12T22:40:17.067Z,8.43
2022-09-12T22:42:21.911Z,6.45
2022-09-12T22:44:26.784Z,6.55
2022-09-12T22:46:31.967Z,6.47
2022-09-12T22:50:42.566Z,7.93
2022-09-12T22:52:49.625Z,8.18
2022-09-12T22:54:54.588Z,6.28
2022-09-12T22:57:02.134Z,7.88
2022-09-12T22:59:07.101Z,7.07
2022-09-12T23:01:12.798Z,6.82
2022-09-12T23:03:18.062Z,7.90
2022-09-12T23:05:22.857Z,6.45
2022-09-12T23:07:27.613Z,7.82
2022-09-12T23:09:35.365Z,7.18
2022-09-12T23:11:40.460Z,7.32
2022-09-12T23:13:49.725Z,7.32
2022-09-12T23:16:00.241Z,8.50
2022-09-12T23:18:05.361Z,6.50
2022-09-12T23:22:15.329Z,7.43
2022-09-12T23:24:20.145Z,8.02
2022-09-12T23:26:28.245Z,9.45
2022-09-12T23:28:33.170Z,7.30
2022-09-12T23:30:40.501Z,8.68
2022-09-12T23:32:45.335Z,7.20
2022-09-12T23:34:50.155Z,7.40
2022-09-12T23:36:56.426Z,6.65
2022-09-12T23:39:01.226Z,6.85
2022-09-12T23:41:07.481Z,7.15
2022-09-12T23:43:12.231Z,7.57
2022-09-12T23:45:17.218Z,7.30
2022-09-12T23:47:24.570Z,7.43
2022-09-12T23:49:29.407Z,6.97
2022-09-12T23:51:34.149Z,6.60
2022-09-12T23:53:39.247Z,7.00
2022-09-12T23:55:44.939Z,6.82
2022-09-12T23:57:49.706Z,9.02
2022-09-12T23:59:54.525Z,6.53
